Latest Weather Observations for Sellicks Hill

IDS60901

Issued at 1:01 am CDT Monday 26 October 2020 (issued every 10 minutes, with the page automatically refreshed every 10 minutes)

About weather observations | Map of Adelaide area stations | Latest observations for Adelaide area | Other Formats
Station Details ID: 023886 Name: MOUNT TERRIBLE RADAR Lat: -35.33 Lon: 138.50 Height: 385.7 m
Data from the previous 72 hours. | See also: Recent months at Sellicks Hill
Date/Time
CDT
Temp
°C
App
Temp
°C
Dew
Point
°C
Rel
Hum
%
Delta-T
°C
Wind Press
QNH
hPa
Press
MSL
hPa
Rain since
9am
mm
Dir  Spd
km/h
Gust
km/h
Spd
kts
Gust
kts
26/01:00am - - - - - SE 32 41 17 22 - - -
26/12:30am - - - - - SSE 33 44 18 24 - - -
26/12:00am - - - - - SSE 33 43 18 23 - - -
 
Date/Time
CDT
Temp
°C
App
Temp
°C
Dew
Point
°C
Rel
Hum
%
Delta-T
°C
Wind Press
QNH
hPa
Press
MSL
hPa
Rain since
9am
mm
Dir  Spd
km/h
Gust
km/h
Spd
kts
Gust
kts
25/11:30pm - - - - - SSE 30 46 16 25 - - -
25/11:00pm - - - - - SSE 37 46 20 25 - - -
25/10:37pm - - - - - SSE 41 61 22 33 - - -
25/10:30pm - - - - - SSE 44 57 24 31 - - -
25/10:00pm - - - - - SSE 39 50 21 27 - - -
25/09:30pm - - - - - SSE 37 46 20 25 - - -
25/09:00pm - - - - - SSE 37 52 20 28 - - -
25/08:30pm - - - - - SSE 41 52 22 28 - - -
25/08:00pm - - - - - SSE 39 52 21 28 - - -
25/07:30pm - - - - - SSE 39 56 21 30 - - -
25/07:00pm - - - - - SSE 43 56 23 30 - - -
25/06:30pm - - - - - SSE 41 54 22 29 - - -
25/06:00pm - - - - - SSE 33 46 18 25 - - -
25/05:30pm - - - - - SSE 41 54 22 29 - - -
25/05:00pm - - - - - SSE 43 54 23 29 - - -
25/04:30pm - - - - - SSE 37 50 20 27 - - -
25/04:00pm - - - - - SSE 43 54 23 29 - - -
25/03:30pm - - - - - SSE 39 50 21 27 - - -
25/03:04pm - - - - - SSE 39 57 21 31 - - -
25/03:00pm - - - - - SSE 43 57 23 31 - - -
25/02:30pm - - - - - SSE 41 54 22 29 - - -
25/02:00pm - - - - - SSE 39 54 21 29 - - -
25/01:30pm - - - - - SSE 43 54 23 29 - - -
25/01:00pm - - - - - SSE 35 46 19 25 - - -
25/12:30pm - - - - - SSE 43 57 23 31 - - -
25/12:00pm - - - - - SE 35 50 19 27 - - -
25/11:30am - - - - - SE 30 44 16 24 - - -
25/11:00am - - - - - SE 22 33 12 18 - - -
25/10:30am - - - - - SE 28 37 15 20 - - -
25/10:00am - - - - - SE 20 30 11 16 - - -
25/09:30am - - - - - SE 24 37 13 20 - - -
25/09:00am - - - - - ESE 19 28 10 15 - - -
25/08:30am - - - - - SE 24 35 13 19 - - -
25/08:00am - - - - - SE 22 33 12 18 - - -
25/07:30am - - - - - ESE 20 35 11 19 - - -
25/07:00am - - - - - SSE 17 22 9 12 - - -
25/06:30am - - - - - SSE 20 26 11 14 - - -
25/06:00am - - - - - SSE 20 26 11 14 - - -
25/05:30am - - - - - SSE 22 28 12 15 - - -
25/05:00am - - - - - SSE 22 30 12 16 - - -
25/04:30am - - - - - S 22 26 12 14 - - -
25/04:00am - - - - - SSE 32 35 17 19 - - -
25/03:30am - - - - - SSE 35 41 19 22 - - -
25/03:00am - - - - - SSE 24 30 13 16 - - -
25/02:30am - - - - - S 24 32 13 17 - - -
25/02:00am - - - - - S 19 28 10 15 - - -
25/01:30am - - - - - S 11 24 6 13 - - -
25/01:00am - - - - - S 24 32 13 17 - - -
25/12:30am - - - - - S 13 20 7 11 - - -
25/12:00am - - - - - S 17 24 9 13 - - -
 
Date/Time
CDT
Temp
°C
App
Temp
°C
Dew
Point
°C
Rel
Hum
%
Delta-T
°C
Wind Press
QNH
hPa
Press
MSL
hPa
Rain since
9am
mm
Dir  Spd
km/h
Gust
km/h
Spd
kts
Gust
kts
24/11:30pm - - - - - S 22 33 12 18 - - -
24/11:00pm - - - - - S 24 33 13 18 - - -
24/10:30pm - - - - - S 17 26 9 14 - - -
24/10:00pm - - - - - S 17 24 9 13 - - -
24/09:30pm - - - - - S 20 30 11 16 - - -
24/09:00pm - - - - - S 13 24 7 13 - - -
24/08:30pm - - - - - S 7 13 4 7 - - -
24/08:00pm - - - - - S 22 30 12 16 - - -
24/07:30pm - - - - - S 17 43 9 23 - - -
24/07:00pm - - - - - S 13 26 7 14 - - -
24/06:30pm - - - - - S 22 39 12 21 - - -
24/06:00pm - - - - - SSW 15 30 8 16 - - -
24/05:30pm - - - - - S 22 44 12 24 - - -
24/05:19pm - - - - - S 30 50 16 27 - - -
24/05:00pm - - - - - S 20 35 11 19 - - -
24/04:30pm - - - - - S 19 35 10 19 - - -
24/04:00pm - - - - - S 20 35 11 19 - - -
24/03:30pm - - - - - S 17 32 9 17 - - -
24/03:00pm - - - - - S 20 39 11 21 - - -
24/02:30pm - - - - - S 17 35 9 19 - - -
24/02:00pm - - - - - SSW 13 30 7 16 - - -
24/01:30pm - - - - - S 20 41 11 22 - - -
24/01:00pm - - - - - S 20 37 11 20 - - -
24/12:31pm - - - - - S 32 50 17 27 - - -
24/12:30pm - - - - - S 32 50 17 27 - - -
24/12:25pm - - - - - S 26 50 14 27 - - -
24/12:00pm - - - - - SSW 11 28 6 15 - - -
24/11:30am - - - - - S 20 41 11 22 - - -
24/11:00am - - - - - SSW 17 33 9 18 - - -
24/10:30am - - - - - SSW 11 24 6 13 - - -
24/10:05am - - - - - S 28 48 15 26 - - -
24/10:00am - - - - - S 22 48 12 26 - - -
24/09:30am - - - - - S 26 43 14 23 - - -
24/09:00am - - - - - S 20 39 11 21 - - -
24/08:30am - - - - - S 19 32 10 17 - - -
24/08:00am - - - - - SSW 11 22 6 12 - - -
24/07:30am - - - - - S 20 32 11 17 - - -
24/07:00am - - - - - SSW 11 28 6 15 - - -
24/06:30am - - - - - S 24 33 13 18 - - -
24/06:00am - - - - - S 30 39 16 21 - - -
24/05:30am - - - - - S 30 39 16 21 - - -
24/05:00am - - - - - S 33 48 18 26 - - -
24/04:30am - - - - - S 37 54 20 29 - - -
24/04:00am - - - - - S 33 44 18 24 - - -
24/03:30am - - - - - S 30 41 16 22 - - -
24/03:17am - - - - - S 32 50 17 27 - - -
24/03:00am - - - - - S 32 43 17 23 - - -
24/02:30am - - - - - S 39 50 21 27 - - -
24/02:00am - - - - - S 39 56 21 30 - - -
24/01:30am - - - - - S 43 59 23 32 - - -
24/01:00am - - - - - S 44 57 24 31 - - -
24/12:30am - - - - - S 44 59 24 32 - - -
24/12:00am - - - - - S 46 59 25 32 - - -
 
Date/Time
CDT
Temp
°C
App
Temp
°C
Dew
Point
°C
Rel
Hum
%
Delta-T
°C
Wind Press
QNH
hPa
Press
MSL
hPa
Rain since
9am
mm
Dir  Spd
km/h
Gust
km/h
Spd
kts
Gust
kts
23/11:30pm - - - - - SSE 50 63 27 34 - - -
23/11:00pm - - - - - S 57 69 31 37 - - -
23/10:30pm - - - - - S 54 69 29 37 - - -
23/10:00pm - - - - - SSE 44 57 24 31 - - -
23/09:30pm - - - - - SSE 43 57 23 31 - - -
23/09:14pm - - - - - SSE 44 63 24 34 - - -
23/09:00pm - - - - - SSE 57 70 31 38 - - -
23/08:30pm - - - - - SSE 63 76 34 41 - - -
23/08:00pm - - - - - SSE 69 83 37 45 - - -
23/07:30pm - - - - - SSE 59 69 32 37 - - -
23/07:00pm - - - - - SSE 57 72 31 39 - - -
23/06:30pm - - - - - SSE 59 67 32 36 - - -
23/06:00pm - - - - - SSE 52 61 28 33 - - -
23/05:30pm - - - - - SSE 52 65 28 35 - - -
23/05:00pm - - - - - SSE 52 61 28 33 - - -
23/04:30pm - - - - - SSE 52 61 28 33 - - -
23/04:00pm - - - - - SSE 50 57 27 31 - - -
23/03:30pm - - - - - SSE 48 57 26 31 - - -
23/03:00pm - - - - - SSE 41 52 22 28 - - -
23/02:30pm - - - - - SSE 43 54 23 29 - - -
23/02:00pm - - - - - SE 35 46 19 25 - - -
23/01:30pm - - - - - SSE 41 48 22 26 - - -
23/01:00pm - - - - - SSE 46 54 25 29 - - -
23/12:30pm - - - - - SSE 43 50 23 27 - - -
23/12:00pm - - - - - SSE 41 52 22 28 - - -
23/11:30am - - - - - SSE 37 48 20 26 - - -
23/11:00am - - - - - SSE 37 46 20 25 - - -
23/10:30am - - - - - SSE 33 41 18 22 - - -
23/10:00am - - - - - SSE 35 44 19 24 - - -
23/09:30am - - - - - SE 33 43 18 23 - - -
23/09:00am - - - - - SE 33 39 18 21 - - -
23/08:30am - - - - - SE 33 43 18 23 - - -
23/08:00am - - - - - SSE 35 43 19 23 - - -
23/07:30am - - - - - SSE 35 41 19 22 - - -
23/07:00am - - - - - SSE 32 39 17 21 - - -
23/06:30am - - - - - SSE 32 37 17 20 - - -
23/06:00am - - - - - SE 37 41 20 22 - - -
23/05:30am - - - - - SSE 39 43 21 23 - - -
23/05:00am - - - - - SSE 32 41 17 22 - - -
23/04:30am - - - - - SE 30 33 16 18 - - -
23/04:00am - - - - - SE 28 33 15 18 - - -
23/03:30am - - - - - SE 24 28 13 15 - - -
23/03:00am - - - - - ESE 24 37 13 20 - - -
23/02:30am - - - - - E 30 43 16 23 - - -
23/02:00am - - - - - E 28 39 15 21 - - -
23/01:30am - - - - - ESE 20 30 11 16 - - -

Latest Capital City Observations: Canberra | Sydney | Melbourne | Brisbane | Adelaide | Perth | Hobart | Darwin

Other formats

Comma delimited format used in spreadsheet applications
http://www.bom.gov.au/fwo/IDS60901/IDS60901.95679.axf

JavaScript Object Notation format (JSON) in row-major order
http://www.bom.gov.au/fwo/IDS60901/IDS60901.95679.json

Data quality

Most of these data are generated automatically and are frequently updated. Quality checks on data are not normally performed. It is possible for incorrect values to appear. Refer to information at About Latest Weather Observations and please check the disclaimer before using these data.